Time;durP1;ratioP1;P1;durP2;ratioP2;P2;SDS_P1;SDS_P2;PMS_P1;PMS_P2;Temp;Humidity;BMP_temperature;BMP_pressure;BME280_temperature;BME280_humidity;BME280_pressure;Samples;Min_cycle;Max_cycle;Signal;HPM_P1;HPM_P2
2022/12/18 00:00:41;;;;;;;;;49.75;42.00;;;;;1.51;56.50;101901.47;2105364;27;46137;-64
2022/12/18 00:01:42;;;;;;;;;59.60;48.60;;;;;1.50;57.20;101897.06;2112703;27;46740;-64
2022/12/18 00:02:42;;;;;;;;;56.00;47.00;;;;;1.51;56.55;101897.97;2109818;27;46529;-63
2022/12/18 00:03:43;;;;;;;;;57.75;47.25;;;;;1.52;56.60;101894.50;2087318;28;46497;-65
2022/12/18 00:04:43;;;;;;;;;53.75;43.75;;;;;1.54;57.25;101892.84;2093756;28;46735;-64
2022/12/18 00:05:48;;;;;;;;;26.25;24.75;;;;;1.53;56.98;101894.59;2104587;28;46519;-63
2022/12/18 00:06:49;;;;;;;;;50.00;44.20;;;;;1.54;56.57;101890.25;2095852;28;46344;-65
2022/12/18 00:07:49;;;;;;;;;50.00;41.75;;;;;1.55;57.08;101885.06;2095297;28;46563;-63
2022/12/18 00:08:50;;;;;;;;;55.75;45.75;;;;;1.57;56.73;101887.72;2096171;28;46606;-64
2022/12/18 00:09:51;;;;;;;;;39.60;32.00;;;;;1.58;57.02;101890.38;2103895;28;46345;-64
2022/12/18 00:10:51;;;;;;;;;59.25;49.00;;;;;1.60;56.76;101890.44;2104690;28;45837;-64
2022/12/18 00:11:51;;;;;;;;;60.25;47.25;;;;;1.59;56.76;101886.94;2104101;28;46263;-63
2022/12/18 00:12:52;;;;;;;;;54.00;43.50;;;;;1.59;56.97;101891.28;2101599;28;46923;-65
2022/12/18 00:13:54;;;;;;;;;53.75;45.50;;;;;1.59;56.81;101888.66;2094044;28;46279;-64
2022/12/18 00:14:54;;;;;;;;;52.60;45.40;;;;;1.59;56.30;101891.28;2096278;28;46048;-63
2022/12/18 00:15:55;;;;;;;;;59.25;50.50;;;;;1.58;56.72;101890.38;2101011;28;45565;-63
2022/12/18 00:16:55;;;;;;;;;53.75;44.25;;;;;1.58;56.82;101887.78;2104700;28;47634;-64
2022/12/18 00:17:55;;;;;;;;;56.75;47.00;;;;;1.59;56.28;101886.03;2103838;27;45657;-63
2022/12/18 00:18:57;;;;;;;;;49.00;43.25;;;;;1.60;56.22;101891.31;2104258;27;45328;-64
2022/12/18 00:19:57;;;;;;;;;77.50;61.00;;;;;1.62;56.71;101883.53;2104883;28;45528;-65
2022/12/18 00:21:02;;;;;;;;;67.75;51.75;;;;;1.63;56.45;101888.81;2097731;27;46349;-64
2022/12/18 00:22:02;;;;;;;;;59.20;49.00;;;;;1.64;56.30;101887.06;2100102;27;46987;-64
2022/12/18 00:23:03;;;;;;;;;55.75;46.00;;;;;1.63;56.75;101886.19;2113006;27;46934;-64
2022/12/18 00:24:04;;;;;;;;;54.75;47.50;;;;;1.64;56.41;101882.72;2098616;28;45374;-63
2022/12/18 00:25:04;;;;;;;;;58.50;45.75;;;;;1.64;56.64;101874.88;2096667;28;45913;-64
2022/12/18 00:26:07;;;;;;;;;59.25;48.75;;;;;1.65;56.83;101883.63;2108386;27;46201;-64
2022/12/18 00:27:08;;;;;;;;;58.40;46.40;;;;;1.64;56.42;101882.72;2104438;28;46573;-64
2022/12/18 00:28:08;;;;;;;;;52.50;42.75;;;;;1.64;56.74;101884.44;2112626;27;45548;-63
2022/12/18 00:29:16;;;;;;;;;61.75;50.00;;;;;1.64;56.32;101881.84;2103281;27;45238;-63
2022/12/18 00:30:16;;;;;;;;;54.00;46.60;;;;;1.66;56.51;101888.03;2109438;27;45471;-63
2022/12/18 00:31:22;;;;;;;;;53.25;45.50;;;;;1.66;56.81;101888.03;2104484;28;46924;-64
2022/12/18 00:32:22;;;;;;;;;55.60;45.20;;;;;1.69;56.29;101888.13;2103229;27;46736;-64
2022/12/18 00:33:23;;;;;;;;;55.75;46.75;;;;;1.69;56.24;101890.75;2104548;28;46360;-63
2022/12/18 00:34:23;;;;;;;;;62.00;50.00;;;;;1.68;56.26;101889.84;2104473;28;45994;-63
2022/12/18 00:35:23;;;;;;;;;62.00;45.50;;;;;1.67;56.76;101882.84;2101402;27;46966;-63
2022/12/18 00:36:27;;;;;;;;;51.00;44.00;;;;;1.68;56.57;101894.22;2103629;27;46440;-64
2022/12/18 00:37:27;;;;;;;;;58.80;47.20;;;;;1.69;56.72;101894.25;2109002;27;46525;-64
2022/12/18 00:38:28;;;;;;;;;57.00;47.75;;;;;1.68;56.57;101909.91;2110994;27;47077;-64
2022/12/18 00:39:28;;;;;;;;;64.00;52.50;;;;;1.67;56.42;101903.78;2110194;27;46285;-63
2022/12/18 00:40:29;;;;;;;;;52.00;43.00;;;;;1.66;56.08;101904.63;2108217;27;46563;-64
2022/12/18 00:42:57;;;;;;;;;58.20;46.60;;;;;1.64;56.35;101908.00;2104541;28;45872;-64
2022/12/18 00:43:57;;;;;;;;;53.20;44.40;;;;;1.62;56.38;101904.44;2105735;27;45796;-62
2022/12/18 00:44:58;;;;;;;;;51.50;43.00;;;;;1.62;56.72;101899.22;2104897;27;46695;-65
2022/12/18 00:45:58;;;;;;;;;62.00;47.00;;;;;1.61;56.64;101893.09;2105446;27;45776;-65
2022/12/18 00:46:58;;;;;;;;;54.25;44.25;;;;;1.60;56.17;101898.28;2104782;27;46474;-64
2022/12/18 00:47:59;;;;;;;;;52.50;47.00;;;;;1.59;56.68;101897.41;2105497;27;46482;-66
2022/12/18 00:48:59;;;;;;;;;47.50;43.00;;;;;1.60;56.15;101906.13;2104683;27;46634;-64
2022/12/18 00:50:00;;;;;;;;;51.75;45.50;;;;;1.60;56.22;101898.28;2113510;27;46611;-63
2022/12/18 00:51:00;;;;;;;;;55.00;46.50;;;;;1.59;56.20;101894.78;2113538;27;46248;-64
2022/12/18 00:52:00;;;;;;;;;60.25;47.75;;;;;1.61;56.46;101894.81;2108906;27;47749;-64
2022/12/18 00:53:01;;;;;;;;;60.75;49.25;;;;;1.62;56.90;101897.50;2104182;28;46618;-63
2022/12/18 00:54:01;;;;;;;;;62.50;50.25;;;;;1.62;56.61;101889.63;2097935;28;45990;-64
2022/12/18 00:55:02;;;;;;;;;56.00;49.50;;;;;1.62;56.68;101896.59;2104745;28;46603;-64
2022/12/18 00:56:02;;;;;;;;;62.75;50.50;;;;;1.61;56.84;101895.72;2107455;27;46136;-64
2022/12/18 00:57:02;;;;;;;;;54.00;48.50;;;;;1.60;56.06;101887.81;2106736;27;46381;-64
2022/12/18 00:58:03;;;;;;;;;62.00;51.00;;;;;1.60;56.46;101890.44;2105518;27;46156;-65
2022/12/18 00:59:04;;;;;;;;;51.75;45.50;;;;;1.58;56.10;101889.50;2105029;27;46006;-63
2022/12/18 01:00:06;;;;;;;;;59.25;46.25;;;;;1.59;56.41;101889.53;2105051;27;46701;-64
2022/12/18 01:01:07;;;;;;;;;59.20;50.60;;;;;1.57;56.25;101891.22;2103558;28;46096;-64
2022/12/18 01:02:07;;;;;;;;;47.50;41.50;;;;;1.57;56.22;101891.22;2107235;27;46572;-63
2022/12/18 01:03:08;;;;;;;;;46.75;41.00;;;;;1.55;56.63;101890.28;2104989;27;46351;-64
2022/12/18 01:04:09;;;;;;;;;58.00;48.20;;;;;1.54;56.35;101898.09;2106486;27;46699;-64
2022/12/18 01:05:12;;;;;;;;;48.50;43.75;;;;;1.55;56.22;101889.41;2104770;27;47676;-64
2022/12/18 01:06:15;;;;;;;;;59.80;49.40;;;;;1.54;56.50;101890.25;2104453;27;45202;-62
2022/12/18 01:07:15;;;;;;;;;53.80;47.00;;;;;1.55;56.53;101886.78;2111079;27;46452;-63
2022/12/18 01:08:15;;;;;;;;;48.50;43.00;;;;;1.55;56.79;101885.06;2113290;27;46647;-62
2022/12/18 01:09:16;;;;;;;;;61.25;50.25;;;;;1.55;56.80;101879.81;2113235;27;46115;-62
2022/12/18 01:10:17;;;;;;;;;61.25;48.00;;;;;1.56;56.79;101883.31;2105086;27;46670;-63
2022/12/18 01:11:20;;;;;;;;;56.20;47.80;;;;;1.55;56.17;101874.59;2105621;27;46608;-62
2022/12/18 01:12:21;;;;;;;;;60.80;49.60;;;;;1.54;56.62;101878.06;2104897;27;47254;-64
2022/12/18 01:13:21;;;;;;;;;60.00;50.50;;;;;1.54;56.40;101871.94;2108655;27;46990;-64
2022/12/18 01:14:21;;;;;;;;;46.00;42.25;;;;;1.53;56.51;101872.78;2113432;27;46083;-64
2022/12/18 01:15:22;;;;;;;;;56.75;47.50;;;;;1.52;56.69;101864.00;2106904;27;46234;-64
2022/12/18 01:16:22;;;;;;;;;60.25;47.75;;;;;1.53;56.79;101871.03;2105612;27;46673;-63
2022/12/18 01:17:23;;;;;;;;;56.00;45.75;;;;;1.55;56.78;101871.97;2104863;27;46691;-63
2022/12/18 01:18:23;;;;;;;;;46.25;42.25;;;;;1.54;56.54;101875.44;2106667;27;46256;-63
2022/12/18 01:19:24;;;;;;;;;58.00;47.75;;;;;1.55;56.90;101876.31;2108531;27;46539;-63
2022/12/18 01:20:24;;;;;;;;;50.50;45.00;;;;;1.55;56.91;101868.47;2121254;27;46070;-63
2022/12/18 01:21:25;;;;;;;;;56.50;47.25;;;;;1.54;56.43;101869.31;2107214;27;46485;-63
2022/12/18 01:22:25;;;;;;;;;58.25;48.75;;;;;1.55;56.45;101871.97;2098322;28;45306;-63
2022/12/18 01:23:27;;;;;;;;;60.50;49.50;;;;;1.54;56.36;101853.63;2111129;27;46197;-63
2022/12/18 01:24:27;;;;;;;;;47.40;42.60;;;;;1.55;56.60;101864.13;2113988;27;46346;-64
2022/12/18 01:25:27;;;;;;;;;61.00;50.25;;;;;1.54;56.16;101866.69;2105832;27;45016;-63
2022/12/18 01:26:29;;;;;;;;;48.75;43.75;;;;;1.54;56.66;101866.69;2107518;27;46186;-64
2022/12/18 01:27:30;;;;;;;;;56.40;48.60;;;;;1.53;56.88;101868.44;2105248;27;47131;-64
2022/12/18 01:28:30;;;;;;;;;53.25;45.25;;;;;1.53;56.42;101875.38;2106397;27;46529;-64
2022/12/18 01:29:31;;;;;;;;;51.25;42.75;;;;;1.53;56.41;101873.66;2104543;27;46631;-64
2022/12/18 01:30:31;;;;;;;;;48.25;44.25;;;;;1.52;56.73;101871.84;2104708;27;46816;-64
2022/12/18 01:31:33;;;;;;;;;53.75;46.25;;;;;1.51;56.23;101871.81;2105395;27;45444;-63
2022/12/18 01:32:34;;;;;;;;;55.60;47.20;;;;;1.52;56.50;101876.19;2104694;27;46038;-64
2022/12/18 01:33:34;;;;;;;;;59.75;47.00;;;;;1.51;56.79;101877.03;2104947;27;46974;-62
2022/12/18 01:34:36;;;;;;;;;50.75;43.00;;;;;1.53;56.53;101880.63;2110659;27;46194;-63
2022/12/18 01:35:42;;;;;;;;;52.00;45.60;;;;;1.53;56.90;101878.00;2111814;27;46676;-65
2022/12/18 01:36:43;;;;;;;;;53.00;43.80;;;;;1.53;56.48;101881.50;2107882;27;46705;-65
2022/12/18 01:37:43;;;;;;;;;42.50;35.75;;;;;1.54;56.84;101885.91;2105923;27;46366;-63
2022/12/18 01:38:44;;;;;;;;;55.50;47.75;;;;;1.52;56.16;101879.69;2116184;27;45489;-63
2022/12/18 01:39:44;;;;;;;;;55.50;47.00;;;;;1.51;56.87;101877.03;2113400;27;45882;-64
2022/12/18 01:40:45;;;;;;;;;40.25;39.25;;;;;1.49;56.91;101874.38;2105020;27;45825;-64
2022/12/18 01:42:04;;;;;;;;;54.00;45.50;;;;;1.47;56.86;101876.06;2104522;27;46480;-63
2022/12/18 01:43:04;;;;;;;;;62.00;50.20;;;;;1.47;56.97;101878.66;2103226;27;46438;-65
2022/12/18 01:44:43;;;;;;;;;55.50;47.50;;;;;1.46;56.54;101876.88;2106187;27;46610;-63
2022/12/18 01:45:43;;;;;;;;;55.20;46.00;;;;;1.43;56.81;101882.03;2103966;27;46704;-63
2022/12/18 01:46:44;;;;;;;;;54.50;45.50;;;;;1.42;56.44;101875.91;2113899;27;45883;-63
2022/12/18 01:47:47;;;;;;;;;53.25;45.00;;;;;1.42;56.61;101873.28;2109003;27;46402;-62
2022/12/18 01:48:52;;;;;;;;;56.60;44.80;;;;;1.42;56.60;101869.78;2109489;27;46074;-64
2022/12/18 01:49:54;;;;;;;;;52.20;44.00;;;;;1.40;56.68;101867.13;2104994;27;47119;-63
2022/12/18 01:50:55;;;;;;;;;54.20;45.80;;;;;1.40;57.19;101876.69;2106006;27;46408;-64
2022/12/18 01:51:55;;;;;;;;;52.25;44.75;;;;;1.40;56.95;101863.63;2108050;27;46117;-64
2022/12/18 01:52:59;;;;;;;;;57.25;47.25;;;;;1.38;56.77;101863.53;2104638;27;46191;-64
2022/12/18 01:54:00;;;;;;;;;56.40;48.20;;;;;1.37;56.56;101869.63;2116990;27;46739;-64
2022/12/18 01:55:03;;;;;;;;;57.75;47.75;;;;;1.36;56.35;101866.94;2104577;27;46644;-63
2022/12/18 01:56:04;;;;;;;;;58.60;48.60;;;;;1.35;57.02;101863.44;2111828;27;47750;-63
2022/12/18 01:57:04;;;;;;;;;53.00;46.25;;;;;1.35;56.89;101859.94;2106248;27;45765;-65
2022/12/18 01:58:05;;;;;;;;;54.25;45.50;;;;;1.34;56.85;101856.44;2103424;28;46075;-64
2022/12/18 01:59:10;;;;;;;;;62.00;51.50;;;;;1.36;57.34;101861.72;2109773;27;45960;-64
2022/12/18 02:00:16;;;;;;;;;61.80;48.20;;;;;1.36;57.37;101846.91;2108085;27;46708;-64
2022/12/18 02:01:16;;;;;;;;;58.20;48.80;;;;;1.37;56.84;101855.66;2104429;27;46675;-63
2022/12/18 02:02:17;;;;;;;;;46.75;41.50;;;;;1.34;56.62;101848.59;2104757;27;45819;-64
2022/12/18 02:03:17;;;;;;;;;53.50;47.25;;;;;1.35;56.73;101846.88;2103775;27;46515;-63
2022/12/18 02:04:26;;;;;;;;;59.00;48.75;;;;;1.34;56.74;101842.47;2104823;27;46759;-62
2022/12/18 02:05:41;;;;;;;;;59.40;47.40;;;;;1.33;56.71;101845.94;2104846;27;46939;-63
2022/12/18 02:06:42;;;;;;;;;51.40;44.60;;;;;1.32;57.06;101841.53;2105658;27;46694;-64
2022/12/18 02:07:52;;;;;;;;;53.60;44.60;;;;;1.32;57.30;101844.16;2105134;27;46125;-63
2022/12/18 02:09:15;;;;;;;;;58.00;47.80;;;;;1.31;57.04;101845.88;2111728;27;46450;-63
2022/12/18 02:10:26;;;;;;;;;52.80;47.60;;;;;1.31;56.69;101835.41;2104201;27;47111;-64
2022/12/18 02:11:51;;;;;;;;;56.80;48.40;;;;;1.30;57.34;101833.66;2108275;27;46649;-63
2022/12/18 02:13:10;;;;;;;;;55.60;45.40;;;;;1.31;57.26;101839.75;2098900;28;46379;-63
2022/12/18 02:14:21;;;;;;;;;35.00;35.00;;;;;1.29;56.89;101844.06;2097234;28;45886;-64
2022/12/18 02:15:30;;;;;;;;;51.60;43.40;;;;;1.29;56.63;101839.72;2111707;27;47106;-64
2022/12/18 02:16:36;;;;;;;;;63.20;51.40;;;;;1.27;56.99;101830.94;2111992;27;46407;-64
2022/12/18 02:17:45;;;;;;;;;58.60;46.80;;;;;1.28;57.23;101834.44;2111443;27;45133;-64
2022/12/18 02:18:51;;;;;;;;;54.00;46.20;;;;;1.27;56.75;101835.25;2114815;27;46222;-65
2022/12/18 02:20:16;;;;;;;;;55.60;47.40;;;;;1.29;56.58;101838.81;2110223;27;46456;-64
2022/12/18 02:21:36;;;;;;;;;53.00;45.40;;;;;1.27;57.27;101836.16;2109262;27;45120;-63
2022/12/18 02:22:57;;;;;;;;;55.40;44.60;;;;;1.26;56.93;101830.84;2110172;27;46498;-63
2022/12/18 02:24:17;;;;;;;;;54.80;44.40;;;;;1.23;56.55;101825.53;2101370;27;46541;-64
2022/12/18 02:25:32;;;;;;;;;55.00;46.00;;;;;1.20;57.20;101826.31;2105588;28;46050;-64
2022/12/18 02:26:37;;;;;;;;;52.80;45.00;;;;;1.18;56.76;101822.78;2107097;27;46084;-63
2022/12/18 02:27:41;;;;;;;;;28.60;24.40;;;;;1.18;56.69;101828.00;2107570;27;46749;-63
2022/12/18 02:28:46;;;;;;;;;55.60;46.20;;;;;1.16;56.88;101822.72;2106425;27;46467;-62
2022/12/18 02:29:53;;;;;;;;;52.20;45.40;;;;;1.16;57.08;101829.69;2104800;27;46591;-63
2022/12/18 02:30:58;;;;;;;;;55.20;47.20;;;;;1.13;56.90;101830.44;2106762;27;46368;-64
2022/12/18 02:31:59;;;;;;;;;53.80;45.20;;;;;1.14;57.08;101818.25;2114429;27;46749;-64
2022/12/18 02:33:03;;;;;;;;;59.40;48.00;;;;;1.15;57.30;101825.28;2106511;27;45723;-63
2022/12/18 02:34:08;;;;;;;;;59.60;46.20;;;;;1.16;57.55;101825.34;2106099;27;46329;-63
2022/12/18 02:35:15;;;;;;;;;53.80;46.20;;;;;1.16;57.60;101825.34;2110662;27;46674;-63
2022/12/18 02:36:18;;;;;;;;;51.40;44.40;;;;;1.17;57.53;101823.59;2108580;27;47876;-64
2022/12/18 02:37:19;;;;;;;;;53.60;44.20;;;;;1.16;57.39;101827.06;2102060;27;46583;-64
2022/12/18 02:38:20;;;;;;;;;49.00;42.60;;;;;1.14;56.85;101826.09;2108938;27;45890;-63
2022/12/18 02:39:23;;;;;;;;;54.25;45.25;;;;;1.16;56.88;101821.84;2105877;27;45931;-63
2022/12/18 02:40:27;;;;;;;;;53.60;45.40;;;;;1.14;57.40;101827.00;2106163;27;45913;-63
2022/12/18 02:41:29;;;;;;;;;51.00;44.60;;;;;1.16;57.20;101824.44;2111469;27;46515;-63
2022/12/18 02:42:30;;;;;;;;;49.60;43.00;;;;;1.17;57.73;101821.00;2108491;27;46461;-63
2022/12/18 02:43:31;;;;;;;;;60.00;47.20;;;;;1.18;57.61;101821.03;2113673;27;46717;-63
2022/12/18 02:44:31;;;;;;;;;40.50;37.25;;;;;1.17;57.66;101810.53;2110378;27;46873;-63
2022/12/18 02:45:32;;;;;;;;;50.50;43.50;;;;;1.15;56.90;101810.50;2112822;27;46246;-63
2022/12/18 02:46:36;;;;;;;;;56.75;47.75;;;;;1.15;56.61;101810.50;2113375;27;46331;-62
2022/12/18 02:47:41;;;;;;;;;58.00;46.00;;;;;1.15;57.48;101809.59;2104453;27;45082;-63
2022/12/18 02:48:41;;;;;;;;;53.00;46.00;;;;;1.13;57.63;101812.13;2107774;27;47144;-64
2022/12/18 02:49:57;;;;;;;;;52.50;46.50;;;;;1.10;56.81;101806.81;2113284;27;47138;-63
2022/12/18 02:51:31;;;;;;;;;45.20;40.60;;;;;1.09;57.25;101806.75;2111323;27;45627;-63
2022/12/18 02:52:36;;;;;;;;;58.60;47.80;;;;;1.08;57.80;101802.38;2082403;28;46054;-64
2022/12/18 02:53:45;;;;;;;;;45.20;42.00;;;;;1.07;57.42;101800.59;2083261;28;47307;-64
2022/12/18 02:55:04;;;;;;;;;46.60;43.20;;;;;1.05;57.45;101800.56;2072495;28;46552;-63
2022/12/18 02:56:21;;;;;;;;;48.20;41.40;;;;;1.04;57.35;101800.50;2079575;28;45531;-64
2022/12/18 02:57:35;;;;;;;;;51.60;43.40;;;;;1.00;57.30;101802.09;2079627;28;46385;-62
2022/12/18 02:58:57;;;;;;;;;54.60;43.40;;;;;0.94;57.75;101796.69;2079845;28;46939;-65
2022/12/18 03:00:14;;;;;;;;;53.00;44.00;;;;;0.94;58.05;101799.28;2084713;28;47191;-63
2022/12/18 03:01:35;;;;;;;;;53.40;44.60;;;;;0.92;57.18;101787.91;2072511;28;47104;-64
2022/12/18 03:02:46;;;;;;;;;51.20;42.80;;;;;0.93;57.38;101796.63;2079533;28;46558;-62
2022/12/18 03:04:00;;;;;;;;;58.00;43.60;;;;;0.91;57.95;101791.34;2079146;28;47030;-63
2022/12/18 03:05:09;;;;;;;;;45.00;39.20;;;;;0.90;57.92;101789.56;2079790;28;46594;-63
2022/12/18 03:06:18;;;;;;;;;48.20;43.00;;;;;0.87;57.36;101781.59;2073692;28;46123;-64
2022/12/18 03:07:25;;;;;;;;;52.40;44.40;;;;;0.88;58.32;101786.88;2079600;28;46390;-64
2022/12/18 03:08:28;;;;;;;;;55.20;44.60;;;;;0.90;58.18;101788.69;2080570;28;45876;-63
2022/12/18 03:09:36;;;;;;;;;50.00;44.20;;;;;0.88;57.79;101786.88;2072126;28;45949;-63
2022/12/18 03:10:43;;;;;;;;;59.60;49.40;;;;;0.88;57.61;101789.50;2072126;28;46589;-64
2022/12/18 03:13:16;;;;;;;;;41.80;40.60;;;;;0.90;57.83;101788.69;2079489;28;46561;-63
2022/12/18 03:14:19;;;;;;;;;50.60;44.00;;;;;0.88;57.86;101789.50;2079593;28;46982;-63
2022/12/18 03:15:31;;;;;;;;;49.20;43.80;;;;;0.86;57.50;101788.56;2081305;28;46274;-63
2022/12/18 03:16:35;;;;;;;;;52.40;44.40;;;;;0.86;58.04;101793.78;2080182;28;46530;-63
2022/12/18 03:17:38;;;;;;;;;49.80;41.60;;;;;0.86;57.86;101793.78;2079615;28;45948;-62
2022/12/18 03:18:45;;;;;;;;;58.80;44.00;;;;;0.86;57.81;101793.78;2080655;28;46292;-62
2022/12/18 03:19:46;;;;;;;;;47.40;43.20;;;;;0.86;57.97;101796.41;2080389;28;46946;-62
2022/12/18 03:20:49;;;;;;;;;54.20;47.80;;;;;0.87;57.81;101797.28;2080024;28;46402;-64
2022/12/18 03:21:54;;;;;;;;;44.40;41.00;;;;;0.88;57.45;101799.94;2079993;28;46140;-63
2022/12/18 03:23:02;;;;;;;;;51.20;45.40;;;;;0.90;58.48;101796.53;2080411;28;47057;-64
2022/12/18 03:24:08;;;;;;;;;48.80;44.60;;;;;0.94;58.39;101798.41;2080135;28;45137;-63
2022/12/18 03:25:12;;;;;;;;;56.60;46.60;;;;;0.94;58.16;101795.78;2079377;28;46813;-63
2022/12/18 03:26:17;;;;;;;;;59.00;48.20;;;;;0.94;57.66;101799.28;2078376;28;46873;-65
2022/12/18 03:27:21;;;;;;;;;40.60;40.00;;;;;0.93;58.14;101796.63;2071224;28;46573;-64
2022/12/18 03:28:23;;;;;;;;;55.60;46.20;;;;;0.94;57.65;101801.00;2077921;28;46398;-64
2022/12/18 03:29:32;;;;;;;;;55.60;45.20;;;;;0.94;57.68;101798.41;2087297;27;46005;-63
2022/12/18 03:30:37;;;;;;;;;49.20;42.80;;;;;0.94;57.83;101795.78;2105816;27;46173;-63
2022/12/18 03:31:41;;;;;;;;;51.80;43.60;;;;;0.92;57.94;101795.75;2105319;27;45383;-63
2022/12/18 03:32:50;;;;;;;;;52.80;46.20;;;;;0.93;57.63;101797.50;2105597;27;46379;-64
2022/12/18 03:33:57;;;;;;;;;47.80;42.00;;;;;0.92;57.65;101797.47;2105352;27;46246;-64
2022/12/18 03:35:04;;;;;;;;;55.40;46.00;;;;;0.91;57.40;101791.34;2113238;27;46432;-63
2022/12/18 03:36:05;;;;;;;;;56.80;46.60;;;;;0.90;58.06;101792.19;2112218;27;46185;-62
2022/12/18 03:37:06;;;;;;;;;57.50;46.75;;;;;0.90;57.70;101789.56;2105580;27;46709;-65
2022/12/18 03:38:08;;;;;;;;;53.80;45.80;;;;;0.89;57.78;101787.81;2101321;27;46904;-63
2022/12/18 03:39:08;;;;;;;;;42.40;40.20;;;;;0.88;58.10;101797.34;2100988;27;46279;-64
2022/12/18 03:40:09;;;;;;;;;51.75;46.25;;;;;0.88;57.98;101794.72;2113813;27;46074;-64
2022/12/18 03:41:19;;;;;;;;;53.75;44.25;;;;;0.86;57.97;101793.78;2106674;27;46659;-64
2022/12/18 03:42:32;;;;;;;;;54.80;47.20;;;;;0.86;58.07;101790.28;2108364;27;46352;-63
2022/12/18 03:43:42;;;;;;;;;49.80;42.80;;;;;0.88;57.49;101796.44;2097780;28;45917;-64
2022/12/18 03:45:00;;;;;;;;;50.60;43.80;;;;;0.90;57.56;101792.19;2108869;27;46397;-62
2022/12/18 03:46:24;;;;;;;;;57.80;49.20;;;;;0.90;57.77;101797.41;2106244;27;46509;-63
2022/12/18 03:47:34;;;;;;;;;58.20;46.40;;;;;0.88;58.09;101799.06;2078988;28;45904;-63
2022/12/18 03:48:51;;;;;;;;;45.60;43.20;;;;;0.84;58.41;101800.69;2080506;28;46946;-63
2022/12/18 03:50:33;;;;;;;;;47.00;41.20;;;;;0.84;58.07;101800.69;2096443;28;46620;-63
2022/12/18 03:51:48;;;;;;;;;51.60;44.40;;;;;0.84;58.36;101798.06;2088079;28;46495;-63
2022/12/18 03:52:59;;;;;;;;;44.80;39.80;;;;;0.83;57.51;101796.28;2094491;28;46989;-63
2022/12/18 03:54:03;;;;;;;;;53.00;45.40;;;;;0.83;57.79;101790.19;2098849;28;46377;-62
2022/12/18 03:55:06;;;;;;;;;59.00;45.00;;;;;0.82;57.82;101791.03;2105252;28;46727;-63
2022/12/18 03:56:09;;;;;;;;;58.00;48.20;;;;;0.79;58.29;101783.09;2103201;28;47044;-64
2022/12/18 03:57:16;;;;;;;;;51.20;42.80;;;;;0.78;58.03;101784.81;2102935;28;46573;-62
2022/12/18 03:58:21;;;;;;;;;54.00;45.20;;;;;0.78;58.34;101786.53;2096308;28;46230;-64
2022/12/18 03:59:24;;;;;;;;;54.20;45.20;;;;;0.78;58.19;101774.34;2103311;28;46828;-64
2022/12/18 04:00:24;;;;;;;;;49.40;43.40;;;;;0.77;58.42;101772.59;2098782;28;46786;-63
2022/12/18 04:01:35;;;;;;;;;46.50;42.25;;;;;0.74;57.50;101771.56;2096449;28;46313;-64
2022/12/18 04:02:40;;;;;;;;;63.00;50.40;;;;;0.72;58.22;101774.13;2088064;28;46320;-65
2022/12/18 04:03:44;;;;;;;;;55.20;46.20;;;;;0.72;58.24;101765.41;2094115;28;45751;-63
2022/12/18 04:04:47;;;;;;;;;57.00;47.40;;;;;0.70;58.23;101760.13;2104377;28;46829;-63
2022/12/18 04:05:50;;;;;;;;;54.60;44.40;;;;;0.71;57.71;101761.00;2102606;28;45943;-63
2022/12/18 04:06:51;;;;;;;;;52.00;42.40;;;;;0.70;58.53;101761.84;2101832;28;46745;-63
2022/12/18 04:07:54;;;;;;;;;59.40;47.60;;;;;0.69;58.00;101760.06;2104943;28;45963;-63
2022/12/18 04:08:54;;;;;;;;;55.60;47.80;;;;;0.69;58.06;101754.84;2097158;28;46514;-63
2022/12/18 04:09:58;;;;;;;;;57.75;46.25;;;;;0.69;58.16;101762.69;2096506;28;46016;-63
2022/12/18 04:10:59;;;;;;;;;59.20;47.80;;;;;0.70;58.12;101760.13;2096862;28;46062;-63
2022/12/18 04:12:00;;;;;;;;;53.60;44.60;;;;;0.71;58.11;101761.00;2100874;28;46260;-63
2022/12/18 04:13:00;;;;;;;;;51.25;43.25;;;;;0.71;57.93;101759.28;2102678;28;46274;-63
2022/12/18 04:14:00;;;;;;;;;60.00;46.50;;;;;0.72;57.80;101763.69;2096753;28;45461;-64
2022/12/18 04:15:01;;;;;;;;;60.25;47.25;;;;;0.73;58.24;101765.44;2095633;28;46379;-64
2022/12/18 04:16:01;;;;;;;;;57.00;46.75;;;;;0.75;58.42;101765.50;2096309;28;46695;-62
2022/12/18 04:17:03;;;;;;;;;58.50;47.75;;;;;0.76;58.69;101765.59;2095844;28;46036;-62
2022/12/18 04:18:03;;;;;;;;;48.60;42.60;;;;;0.79;58.13;101759.56;2095902;28;46230;-64
2022/12/18 04:19:04;;;;;;;;;57.50;45.75;;;;;0.81;57.63;101760.50;2095703;28;46750;-63
2022/12/18 04:20:05;;;;;;;;;52.00;44.50;;;;;0.80;58.53;101764.84;2088398;28;45119;-64
2022/12/18 04:21:05;;;;;;;;;52.50;44.75;;;;;0.82;58.61;101767.50;2088525;28;46539;-64
2022/12/18 04:22:06;;;;;;;;;58.00;47.00;;;;;0.83;58.48;101767.56;2096318;28;45888;-63
2022/12/18 04:23:06;;;;;;;;;47.00;43.25;;;;;0.84;58.47;101763.22;2099607;28;46351;-63
2022/12/18 04:24:07;;;;;;;;;56.00;46.50;;;;;0.84;57.73;101777.16;2095982;28;46417;-63
2022/12/18 04:25:07;;;;;;;;;48.75;44.00;;;;;0.85;57.63;101778.06;2094912;28;46096;-63
2022/12/18 04:26:08;;;;;;;;;53.00;46.25;;;;;0.84;58.40;101774.56;2110485;27;46213;-64
2022/12/18 04:27:08;;;;;;;;;54.50;44.75;;;;;0.85;57.84;101778.94;2114344;27;45773;-62
2022/12/18 04:28:09;;;;;;;;;50.75;45.50;;;;;0.86;57.89;101779.81;2110972;27;45816;-63
2022/12/18 04:29:09;;;;;;;;;54.00;43.50;;;;;0.85;57.67;101778.94;2112889;27;46531;-63
2022/12/18 04:30:10;;;;;;;;;48.00;41.75;;;;;0.85;57.87;101781.56;2105583;27;46652;-62
2022/12/18 04:31:10;;;;;;;;;52.50;44.00;;;;;0.85;57.78;101781.56;2101719;27;46170;-63
2022/12/18 04:32:10;;;;;;;;;51.75;45.25;;;;;0.86;57.69;101769.38;2108120;27;46645;-63
2022/12/18 04:33:12;;;;;;;;;54.25;47.25;;;;;0.85;57.53;101767.59;2104208;27;46697;-63
2022/12/18 04:34:13;;;;;;;;;52.80;45.80;;;;;0.84;57.49;101766.72;2114601;27;47132;-62
2022/12/18 04:35:13;;;;;;;;;51.75;44.25;;;;;0.84;58.12;101764.09;2113489;27;46593;-64
2022/12/18 04:36:14;;;;;;;;;50.25;44.25;;;;;0.85;58.55;101765.00;2110052;27;45650;-65
2022/12/18 04:37:14;;;;;;;;;46.50;43.00;;;;;0.85;57.96;101765.00;2105279;27;46177;-64
2022/12/18 04:38:14;;;;;;;;;54.00;45.50;;;;;0.84;58.11;101773.66;2108823;27;45935;-64
2022/12/18 04:39:18;;;;;;;;;55.50;46.00;;;;;0.83;58.57;101770.16;2109878;27;45939;-63
2022/12/18 04:40:18;;;;;;;;;57.20;48.00;;;;;0.84;58.37;101771.94;2113121;27;46643;-63
2022/12/18 04:41:18;;;;;;;;;55.75;46.00;;;;;0.84;57.67;101782.41;2103484;27;45791;-63
2022/12/18 04:42:19;;;;;;;;;50.00;45.00;;;;;0.84;57.81;101778.91;2103785;28;46534;-63
2022/12/18 04:43:19;;;;;;;;;51.25;44.00;;;;;0.85;57.90;101775.44;2104993;28;46318;-62
2022/12/18 04:44:20;;;;;;;;;37.75;36.75;;;;;0.86;57.59;101779.81;2108446;27;46852;-62
2022/12/18 04:45:20;;;;;;;;;51.50;47.00;;;;;0.84;58.46;101779.78;2114280;27;46903;-63
2022/12/18 04:46:20;;;;;;;;;51.75;44.00;;;;;0.81;57.94;101777.06;2113778;27;46980;-63
2022/12/18 04:47:21;;;;;;;;;57.00;47.25;;;;;0.80;58.40;101775.28;2108476;27;45560;-62
2022/12/18 04:48:21;;;;;;;;;51.75;42.50;;;;;0.81;58.40;101776.19;2104889;28;46289;-64
2022/12/18 04:49:21;;;;;;;;;50.00;44.00;;;;;0.81;58.60;101779.69;2105323;27;47016;-64
2022/12/18 04:50:22;;;;;;;;;52.25;45.50;;;;;0.80;57.81;101780.53;2108539;27;46143;-63
2022/12/18 04:51:22;;;;;;;;;49.00;44.25;;;;;0.81;58.46;101776.19;2113561;27;45211;-62
2022/12/18 04:52:22;;;;;;;;;55.50;47.00;;;;;0.83;57.81;101782.34;2106528;27;46256;-64
2022/12/18 04:53:23;;;;;;;;;59.25;48.25;;;;;0.81;58.54;101776.19;2105407;27;45934;-63
2022/12/18 04:54:23;;;;;;;;;60.25;45.75;;;;;0.82;57.74;101780.56;2111374;27;46550;-63
2022/12/18 04:55:24;;;;;;;;;48.00;41.75;;;;;0.83;57.95;101785.84;2108891;27;46126;-62
2022/12/18 04:56:24;;;;;;;;;52.25;46.25;;;;;0.85;58.21;101793.72;2105102;27;46122;-63
2022/12/18 04:57:24;;;;;;;;;49.00;43.75;;;;;0.87;58.04;101786.84;2108222;27;46213;-62